Flight Track Log - Related Links

Times and Time Zones

All times are in EDT time to prevent confusion due to time zone crossing. See the UAL4457 flight status page for this flight to view local times or setup timezone preferences in your user account.

Time Position Orientation Groundspeed Altitude Reporting Facility
EDT Latitude Longitude Course Direction KTS MPH feet Rate Location/Type
Fri 06:06:21 PM 38.0661 -84.4925 106° East 230 265 7,000  Level Indianapolis Center
Fri 06:07:00 PM 37.8675 -84.6357 241° Southwest  Level FlightAware Approximate
Fri 06:07:23 PM 38.0122 -84.5431 216° Southwest 258 297 10,000  Level Indianapolis Center
Fri 06:08:00 PM 37.8194 -84.7439 241° Southwest  Level FlightAware Approximate
Fri 06:08:25 PM 37.9694 -84.6194 235° Southwest 267 307 13,100  Level Indianapolis Center
Fri 06:09:00 PM 37.7594 -84.8419 234° Southwest  Level FlightAware Approximate
Fri 06:09:27 PM 37.9172 -84.7125 235° Southwest 275 316 16,100  Level Indianapolis Center
Fri 06:10:00 PM 37.7009 -84.9503 239° Southwest  Level FlightAware Approximate
Fri 06:10:29 PM 37.8703 -84.7961 235° Southwest 289 333 18,100  Level Indianapolis Center
Fri 06:11:31 PM 37.8228 -84.8817 235° Southwest 295 339 19,800 1,548 Climbing Indianapolis Center
Fri 06:12:33 PM 37.7700 -84.9758 235° Southwest 320 368 21,300 1,500 Climbing Indianapolis Center
Fri 06:13:35 PM 37.7142 -85.0761 235° Southwest 343 395 22,900 1,645 Climbing Indianapolis Center
Fri 06:14:37 PM 37.6564 -85.1794 235° Southwest 355 409 24,700 2,032 Climbing Indianapolis Center
Fri 06:15:39 PM 37.5897 -85.2964 234° Southwest 352 405 27,100 1,984 Climbing Indianapolis Center
Fri 06:16:41 PM 37.5342 -85.3944 234° Southwest 346 398 28,800 1,452 Climbing Indianapolis Center
Fri 06:17:43 PM 37.4792 -85.4919 235° Southwest 343 395 30,100 1,065 Climbing Indianapolis Center
Fri 06:18:45 PM 37.4161 -85.6011 234° Southwest 354 407 31,000 435 Climbing Indianapolis Center
Fri 06:19:47 PM 37.3528 -85.7108 234° Southwest 381 438 31,000  Level Indianapolis Center
Fri 06:20:09 PM 37.3258 -85.7611 236° Southwest 385 443 31,000 878 Level Memphis Center
Fri 06:21:09 PM 37.2650 -85.8639 233° Southwest 385 443 32,200 1,353 Climbing Memphis Center
Fri 06:21:51 PM 37.2147 -85.9511 234° Southwest 397 457 33,300 1,442 Climbing Indianapolis Center
Fri 06:22:53 PM 37.1525 -86.0592 234° Southwest 384 442 34,700 1,174 Climbing Indianapolis Center
Fri 06:24:09 PM 37.0761 -86.1761 231° Southwest 379 436 36,000 574 Climbing Memphis Center
Fri 06:25:09 PM 36.9869 -86.2586 216° Southwest 387 445 36,000  Level Memphis Center
Fri 06:26:09 PM 36.8981 -86.3411 217° Southwest 404 465 36,000  Level Memphis Center
Fri 06:27:09 PM 36.8008 -86.4314 217° Southwest 409 471 36,000  Level Memphis Center
Fri 06:28:09 PM 36.7139 -86.5133 217° Southwest 404 465 36,000  Level Memphis Center
Fri 06:29:09 PM 36.6267 -86.5950 217° Southwest 404 465 36,000  Level Memphis Center
Fri 06:30:09 PM 36.5375 -86.6767 216° Southwest 404 465 36,000  Level Memphis Center
Fri 06:31:09 PM 36.4483 -86.7581 216° Southwest 404 465 36,000  Level Memphis Center
Fri 06:32:09 PM 36.3525 -86.8422 215° Southwest 409 471 36,000  Level Memphis Center
Fri 06:33:09 PM 36.2631 -86.9233 216° Southwest 409 471 36,000  Level Memphis Center
Fri 06:34:09 PM 36.1819 -87.0039 219° Southwest 427 491 36,000  Level Memphis Center
Fri 06:35:09 PM 36.0864 -87.0900 216° Southwest 411 473 36,000  Level Memphis Center
Fri 06:36:09 PM 35.9967 -87.1706 216° Southwest 401 461 36,000  Level Memphis Center
Fri 06:37:09 PM 35.9069 -87.2536 217° Southwest 401 461 36,000  Level Memphis Center
Fri 06:38:09 PM 35.8153 -87.3339 215° Southwest 406 467 36,000  Level Memphis Center
Fri 06:39:09 PM 35.7214 -87.4217 217° Southwest 412 474 36,000  Level Memphis Center
Fri 06:40:09 PM 35.6272 -87.5042 215° Southwest 412 474 36,000  Level Memphis Center
Fri 06:41:09 PM 35.5333 -87.5889 216° Southwest 422 486 36,000  Level Memphis Center
Fri 06:42:09 PM 35.4372 -87.6736 216° Southwest 422 486 36,000  Level Memphis Center
Fri 06:43:09 PM 35.3553 -87.7475 216° Southwest 422 486 36,000  Level Memphis Center
Fri 06:44:09 PM 35.2569 -87.8319 215° Southwest 422 486 36,000  Level Memphis Center
Fri 06:45:09 PM 35.1647 -87.9161 217° Southwest 422 486 36,000  Level Memphis Center
Fri 06:46:09 PM 35.0642 -88.0003 214° Southwest 411 473 36,000  Level Memphis Center
Fri 06:47:09 PM 34.9717 -88.0814 216° Southwest 416 479 36,000  Level Memphis Center
Fri 06:48:09 PM 34.8753 -88.1625 215° Southwest 416 479 36,000  Level Memphis Center
Fri 06:49:09 PM 34.7953 -88.2431 220° Southwest 423 487 36,000  Level Memphis Center
Fri 06:50:09 PM 34.7028 -88.3236 216° Southwest 428 493 36,000  Level Memphis Center
Fri 06:51:09 PM 34.6081 -88.4042 215° Southwest 423 487 36,000  Level Memphis Center
Fri 06:52:09 PM 34.5092 -88.4869 215° Southwest 423 487 36,000  Level Memphis Center
Fri 06:53:09 PM 34.4122 -88.5722 216° Southwest 423 487 36,000  Level Memphis Center
Fri 06:54:09 PM 34.3133 -88.6572 215° Southwest 428 493 36,000  Level Memphis Center
Fri 06:55:09 PM 34.2164 -88.7419 216° Southwest 428 493 36,000  Level Memphis Center
Fri 06:56:09 PM 34.1172 -88.8242 214° Southwest 434 499 36,000  Level Memphis Center
Fri 06:57:09 PM 34.0078 -88.9114 213° Southwest 434 499 36,000  Level Memphis Center
Fri 06:58:09 PM 33.9106 -88.9956 216° Southwest 444 511 36,000  Level Memphis Center
Fri 06:59:09 PM 33.8114 -89.0797 215° Southwest 444 511 36,000  Level Memphis Center
Fri 07:00:09 PM 33.7264 -89.1583 218° Southwest 444 511 36,000  Level Memphis Center
Fri 07:01:09 PM 33.6292 -89.2419 216° Southwest 439 505 36,000  Level Memphis Center
Fri 07:02:09 PM 33.5317 -89.3206 214° Southwest 439 505 36,000  Level Memphis Center
Fri 07:03:09 PM 33.4344 -89.4039 216° Southwest 439 505 36,000  Level Memphis Center
Fri 07:04:09 PM 33.3389 -89.4819 214° Southwest 439 505 36,000  Level Memphis Center
Fri 07:05:09 PM 33.2517 -89.5550 215° Southwest 434 499 36,000  Level Memphis Center
Fri 07:06:09 PM 33.1375 -89.6503 215° Southwest 429 494 36,000  Level Memphis Center
Fri 07:07:09 PM 33.0439 -89.7278 215° Southwest 429 494 36,000  Level Memphis Center
Fri 07:08:09 PM 32.9525 -89.8053 215° Southwest 429 494 36,000  Level Memphis Center
Fri 07:09:09 PM 32.8567 -89.8825 214° Southwest 423 487 36,000  Level Memphis Center
Fri 07:10:09 PM 32.7589 -89.9619 214° Southwest 423 487 36,000  Level Memphis Center
Fri 07:11:09 PM 32.6672 -90.0389 215° Southwest 423 487 36,000  Level Memphis Center
Fri 07:12:09 PM 32.5736 -90.1133 214° Southwest 423 487 36,000  Level Memphis Center
Fri 07:13:09 PM 32.4881 -90.2022 221° Southwest 418 481 36,000  Level Memphis Center
Fri 07:14:09 PM 32.4297 -90.3156 239° Southwest 400 460 36,000 -250 Level Memphis Center
Fri 07:15:09 PM 32.3733 -90.4189 237° Southwest 395 455 35,500 -500 Descending Memphis Center
Fri 07:16:09 PM 32.3189 -90.5244 239° Southwest 390 449 35,000 -172 Descending Memphis Center
Fri 07:18:03 PM 32.2183 -90.7186 239° Southwest 361 415 35,000  Level Houston Center
Fri 07:19:05 PM 32.1656 -90.8203 239° Southwest 390 449 35,000  Level Houston Center
Fri 07:20:07 PM 32.0936 -90.9561 238° Southwest 407 468 35,000  Level Houston Center
Fri 07:21:09 PM 32.0331 -91.0714 238° Southwest 413 475 35,000  Level Houston Center
Fri 07:22:11 PM 31.9708 -91.1839 237° Southwest 410 472 35,000  Level Houston Center
Fri 07:23:13 PM 31.9114 -91.2986 239° Southwest 410 472 35,000  Level Houston Center
Fri 07:24:15 PM 31.8500 -91.4103 237° Southwest 407 468 35,000  Level Houston Center
Fri 07:25:17 PM 31.7897 -91.5242 238° Southwest 408 470 35,000  Level Houston Center
Fri 07:26:18 PM 31.7164 -91.6597 238° Southwest 409 471 35,000  Level Houston Center
Fri 07:27:20 PM 31.6564 -91.7719 238° Southwest 406 467 35,000  Level Houston Center
Fri 07:28:22 PM 31.5944 -91.8844 237° Southwest 408 470 35,000  Level Houston Center
Fri 07:29:24 PM 31.5342 -91.9967 238° Southwest 407 468 35,000  Level Houston Center
Fri 07:30:26 PM 31.4689 -92.1097 236° Southwest 413 475 35,000  Level Houston Center
Fri 07:31:28 PM 31.4078 -92.2203 237° Southwest 410 472 35,000  Level Houston Center
Fri 07:32:30 PM 31.3342 -92.3536 237° Southwest 407 468 35,000  Level Houston Center
Fri 07:33:32 PM 31.2739 -92.4656 238° Southwest 407 468 35,000  Level Houston Center
Fri 07:34:34 PM 31.2139 -92.5764 238° Southwest 406 467 35,000  Level Houston Center
Fri 07:35:36 PM 31.1517 -92.6872 237° Southwest 407 468 35,000  Level Houston Center
Fri 07:36:38 PM 31.0900 -92.7972 237° Southwest 406 467 35,000  Level Houston Center
Fri 07:37:40 PM 31.0292 -92.9064 237° Southwest 403 464 35,000 -97 Level Houston Center
Fri 07:38:42 PM 30.9711 -93.0100 237° Southwest 385 443 34,800 -585 Descending Houston Center
Fri 07:39:43 PM 30.9042 -93.1294 237° Southwest 369 425 33,800 -1,366 Descending Houston Center
Fri 07:40:45 PM 30.8456 -93.2319 236° Southwest 380 437 32,000 -1,790 Descending Houston Center
Fri 07:41:47 PM 30.7864 -93.3372 237° Southwest 388 447 30,100 -1,790 Descending Houston Center
Fri 07:42:49 PM 30.7258 -93.4442 237° Southwest 396 456 28,300 -1,839 Descending Houston Center
Fri 07:43:51 PM 30.6625 -93.5553 236° Southwest 409 471 26,300 -2,129 Descending Houston Center
Fri 07:44:53 PM 30.5867 -93.6883 237° Southwest 417 480 23,900 -2,195 Descending Houston Center
Fri 07:45:54 PM 30.5236 -93.7986 236° Southwest 416 479 21,800 -2,000 Descending Houston Center
Fri 07:46:56 PM 30.4617 -93.9056 236° Southwest 406 467 19,800 -2,034 Descending Houston Center
Fri 07:47:52 PM 30.4022 -94.0078 236° Southwest 380 437 17,800 -1,984 Descending Houston Center
Fri 07:49:00 PM 30.3397 -94.1181 237° Southwest 362 417 15,700 -2,000 Descending Houston Center
Fri 07:50:01 PM 30.2822 -94.2156 236° Southwest 351 404 13,500 -1,721 Descending Houston Center
Fri 07:51:02 PM 30.2267 -94.3122 236° Southwest 338 389 12,200 -787 Descending Houston Center
Fri 07:52:03 PM 30.1897 -94.4067 246° West 324 373 11,900 -768 Descending Houston Center
Fri 07:53:07 PM 30.1744 -94.5083 260° West 323 372 10,600 -905 Descending Houston Center
Fri 07:54:09 PM 30.1572 -94.5989 258° West 298 343 10,000 -290 Descending Houston Center
Fri 07:55:11 PM 30.1406 -94.6958 259° West 306 352 10,000  Level Houston Center
Fri 07:56:08 PM 30.1228 -94.7975 259° West 297 342 10,000  Level Houston Center
Fri 07:57:09 PM 30.1075 -94.8814 258° West 263 303 10,000 -590 Level Houston Center
Fri 07:58:10 PM 30.1053 -94.9664 268° West 270 311 8,800 -1,377 Descending Houston Center
Fri 07:59:11 PM 30.1053 -95.0581 270° West 271 312 7,200 -1,313 Descending Houston Center
Fri 08:00:18 PM 30.1053 -95.1475 270° West 253 291 6,000 -563 Descending Houston Center
Fri 08:01:19 PM 30.1064 -95.2269 271° West 231 266 6,000  Level Houston Center
Fri 08:02:15 PM 30.1058 -95.2900 269° West 229 264 6,000 -143 Level Houston Center
Fri 08:03:25 PM 30.1064 -95.3633 271° West 224 258 5,700 -1,279 Descending Houston Center
Fri 08:04:17 PM 30.1064 -95.4322 270° West 214 246 3,400 -1,912 Descending Houston Center
Fri 08:05:18 PM 30.0817 -95.4861 242° Southwest 194 223 2,100 -1,279 Descending Houston Center

Login

Don't have an account? Register now (free) for customized features, flight alerts, and more!